Terminal Aerodrome Forecast
Issued by NWS Chicago, IL

Home | Current Version | Previous Version | Text Only | Print | Product List | Glossary Off
Versions: 1 2 3 4 5 6 7 8 9 10 11 12 13 14 15 16 17 18 19 20 21 22 23 24 25 26 27

000
FTUS43 KLOT 031507 AAA
TAFRFD
TAF AMD
KRFD 031507Z 0315/0412 30006KT P6SM OVC023
     FM031700 31005KT P6SM OVC035
     FM040000 16003KT P6SM BKN040 BKN250
     FM040900 15005KT 5SM -SN OVC050=

USA.gov is the U.S. government's official web portal to all federal, state and local government web resources and services.